createdAt,value
2023-03-27T00:02:05.054Z,1.77
2023-03-27T00:04:31.930Z,1.88
2023-03-27T00:06:59.430Z,1.75
2023-03-27T00:09:27.725Z,1.83
2023-03-27T00:11:56.204Z,1.71
2023-03-27T00:14:23.914Z,1.71
2023-03-27T00:16:51.314Z,1.58
2023-03-27T00:19:18.957Z,1.61
2023-03-27T00:21:45.701Z,1.73
2023-03-27T00:24:12.421Z,1.78
2023-03-27T00:26:40.783Z,1.90
2023-03-27T00:29:07.801Z,1.92
2023-03-27T00:31:34.625Z,1.67
2023-03-27T00:34:01.805Z,1.89
2023-03-27T00:36:28.445Z,1.80
2023-03-27T00:38:55.090Z,1.75
2023-03-27T00:41:22.801Z,1.90
2023-03-27T00:43:52.560Z,1.75
2023-03-27T00:46:25.158Z,1.81
2023-03-27T00:48:52.676Z,1.78
2023-03-27T00:51:23.039Z,1.79
2023-03-27T00:53:51.406Z,1.63
2023-03-27T00:56:18.288Z,1.81
2023-03-27T00:59:01.317Z,1.82
2023-03-27T01:01:29.756Z,1.62
2023-03-27T01:04:01.005Z,1.67
2023-03-27T01:06:29.924Z,1.99
2023-03-27T01:08:56.519Z,1.80
2023-03-27T01:11:59.903Z,1.83
2023-03-27T01:14:42.044Z,1.82
2023-03-27T01:17:33.976Z,1.72
2023-03-27T01:20:26.022Z,1.82
2023-03-27T01:23:36.264Z,1.71
2023-03-27T01:26:43.230Z,1.81
2023-03-27T01:29:31.067Z,1.81
2023-03-27T01:32:38.330Z,1.92
2023-03-27T01:35:30.341Z,1.68
2023-03-27T01:38:08.983Z,1.76
2023-03-27T01:40:41.991Z,1.69
2023-03-27T01:43:17.089Z,1.70
2023-03-27T01:45:57.536Z,1.68
2023-03-27T01:48:37.405Z,1.60
2023-03-27T01:51:16.463Z,1.64
2023-03-27T01:53:52.170Z,1.54
2023-03-27T01:56:26.615Z,1.49
2023-03-27T01:59:04.121Z,1.68
2023-03-27T02:01:42.326Z,1.54
2023-03-27T02:04:16.445Z,1.57
2023-03-27T02:06:53.211Z,1.71
2023-03-27T02:09:47.046Z,1.60
2023-03-27T02:12:19.631Z,1.33
2023-03-27T02:15:23.383Z,1.24
2023-03-27T02:17:56.906Z,1.23
2023-03-27T02:20:24.167Z,1.47
2023-03-27T02:22:50.772Z,1.37
2023-03-27T02:25:42.512Z,1.37
2023-03-27T02:28:15.414Z,1.49
2023-03-27T02:31:31.049Z,1.30
2023-03-27T02:33:52.577Z,1.20
2023-03-27T02:36:33.971Z,1.32
2023-03-27T02:39:11.696Z,1.39
2023-03-27T02:41:45.104Z,1.17
2023-03-27T02:44:32.516Z,1.25
2023-03-27T02:47:18.194Z,1.43
2023-03-27T02:49:54.345Z,1.09
2023-03-27T02:52:27.279Z,1.29
2023-03-27T02:55:04.803Z,1.23
2023-03-27T02:57:39.479Z,1.16
2023-03-27T03:00:24.338Z,1.28
2023-03-27T03:02:59.138Z,1.22
2023-03-27T03:05:27.073Z,1.13
2023-03-27T03:07:54.454Z,1.12
2023-03-27T03:10:21.391Z,1.19
2023-03-27T03:12:47.935Z,1.31
2023-03-27T03:15:14.554Z,1.28
2023-03-27T03:17:41.137Z,1.27
2023-03-27T03:20:09.808Z,1.25
2023-03-27T03:22:39.887Z,1.28
2023-03-27T03:25:07.643Z,1.34
2023-03-27T03:27:34.188Z,1.49
2023-03-27T03:30:01.153Z,1.52
2023-03-27T03:32:28.106Z,1.36
2023-03-27T03:34:56.849Z,1.41
2023-03-27T03:37:28.409Z,1.47
2023-03-27T03:39:55.743Z,1.36
2023-03-27T03:42:23.660Z,1.37
2023-03-27T03:44:50.804Z,1.46
2023-03-27T03:47:17.512Z,1.51
2023-03-27T03:49:44.022Z,1.61
2023-03-27T03:52:10.637Z,1.50
2023-03-27T03:54:38.708Z,1.45
2023-03-27T03:57:05.455Z,1.57
2023-03-27T03:59:32.241Z,1.36
2023-03-27T04:01:58.816Z,1.43
2023-03-27T04:04:25.452Z,1.60
2023-03-27T04:06:53.015Z,1.68
2023-03-27T04:09:19.698Z,1.67
2023-03-27T04:11:46.877Z,1.73
2023-03-27T04:14:13.492Z,1.71
2023-03-27T04:16:40.261Z,1.56
2023-03-27T04:19:07.107Z,1.64
2023-03-27T04:21:33.692Z,1.69
2023-03-27T04:24:02.532Z,1.55
2023-03-27T04:26:29.710Z,1.52
2023-03-27T04:28:56.431Z,1.48
2023-03-27T04:31:23.097Z,1.48
2023-03-27T04:33:51.895Z,1.45
2023-03-27T04:36:19.066Z,1.64
2023-03-27T04:38:47.855Z,1.47
2023-03-27T04:41:14.613Z,1.44
2023-03-27T04:43:41.876Z,1.50
2023-03-27T04:46:09.329Z,1.71
2023-03-27T04:48:38.344Z,1.62
2023-03-27T04:51:06.786Z,1.82
2023-03-27T04:53:36.070Z,1.69
2023-03-27T04:56:03.294Z,1.60
2023-03-27T04:58:29.918Z,1.42
2023-03-27T05:00:57.363Z,1.43
2023-03-27T05:03:24.569Z,1.44
2023-03-27T05:05:51.251Z,1.20
2023-03-27T05:08:18.691Z,1.41
2023-03-27T05:10:46.460Z,1.20
2023-03-27T05:13:13.091Z,1.26
2023-03-27T05:15:39.634Z,1.22
2023-03-27T05:18:07.224Z,1.37
2023-03-27T05:20:34.619Z,1.47
2023-03-27T05:23:01.232Z,1.52
2023-03-27T05:25:28.930Z,1.40
2023-03-27T05:27:55.517Z,1.50
2023-03-27T05:30:24.499Z,1.52
2023-03-27T05:32:52.734Z,1.35
2023-03-27T05:35:22.405Z,1.37
2023-03-27T05:37:52.590Z,1.45
2023-03-27T05:40:28.006Z,1.71
2023-03-27T05:42:56.431Z,1.50
2023-03-27T05:45:23.223Z,1.53
2023-03-27T05:47:58.092Z,1.82
2023-03-27T05:50:32.358Z,1.54
2023-03-27T05:53:10.049Z,1.37
2023-03-27T05:55:38.724Z,1.73
2023-03-27T05:58:10.108Z,1.76
2023-03-27T06:00:38.366Z,1.75
2023-03-27T06:03:05.317Z,1.76
2023-03-27T06:05:32.480Z,1.64
2023-03-27T06:07:59.519Z,1.68
2023-03-27T06:10:28.772Z,1.50
2023-03-27T06:13:08.195Z,1.53
2023-03-27T06:15:37.012Z,1.68
2023-03-27T06:18:03.922Z,1.67
2023-03-27T06:20:30.902Z,1.60
2023-03-27T06:23:03.823Z,1.53
2023-03-27T06:25:33.357Z,1.76
2023-03-27T06:28:01.528Z,1.81
2023-03-27T06:30:29.356Z,1.96
2023-03-27T06:32:58.527Z,1.88
2023-03-27T06:35:28.131Z,1.90
2023-03-27T06:38:02.734Z,1.96
2023-03-27T06:40:31.434Z,2.04
2023-03-27T06:42:59.820Z,2.19
2023-03-27T06:45:30.199Z,2.53
2023-03-27T06:48:15.017Z,2.36
2023-03-27T06:50:47.725Z,2.23
2023-03-27T06:53:26.448Z,2.20
2023-03-27T06:55:54.917Z,2.13
2023-03-27T06:58:22.204Z,1.92
2023-03-27T07:00:50.055Z,2.16
2023-03-27T07:03:18.252Z,2.06
2023-03-27T07:05:45.680Z,2.06
2023-03-27T07:08:23.697Z,2.01
2023-03-27T07:11:09.895Z,2.02
2023-03-27T07:13:38.063Z,2.16
2023-03-27T07:16:05.270Z,2.03
2023-03-27T07:18:31.982Z,1.98
2023-03-27T07:20:58.697Z,1.80
2023-03-27T07:23:25.607Z,2.06
2023-03-27T07:25:58.060Z,1.82
2023-03-27T07:28:24.907Z,1.88
2023-03-27T07:30:51.744Z,1.78
2023-03-27T07:33:18.430Z,1.83
2023-03-27T07:35:46.685Z,1.82
2023-03-27T07:38:14.166Z,1.89
2023-03-27T07:40:42.722Z,1.36
2023-03-27T07:43:09.337Z,1.16
2023-03-27T07:45:36.364Z,0.99
2023-03-27T07:48:14.781Z,0.92
2023-03-27T07:50:42.179Z,0.94
2023-03-27T07:53:08.708Z,0.70
2023-03-27T07:55:37.727Z,0.78
2023-03-27T07:58:06.708Z,0.70
2023-03-27T08:00:35.579Z,0.83
2023-03-27T08:03:10.776Z,0.96
2023-03-27T08:05:38.346Z,0.88
2023-03-27T08:08:05.300Z,0.93
2023-03-27T08:10:32.259Z,0.85
2023-03-27T08:12:58.905Z,1.07
2023-03-27T08:15:25.770Z,0.98
2023-03-27T08:17:54.927Z,0.98
2023-03-27T08:20:23.930Z,0.93
2023-03-27T08:22:52.667Z,1.10
2023-03-27T08:25:22.176Z,1.29
2023-03-27T08:27:48.935Z,1.13
2023-03-27T08:30:17.111Z,1.22
2023-03-27T08:32:44.820Z,1.19
2023-03-27T08:35:12.226Z,1.20
2023-03-27T08:37:39.016Z,0.91
2023-03-27T08:40:12.588Z,0.94
2023-03-27T08:42:42.792Z,1.09
2023-03-27T08:45:21.017Z,0.89
2023-03-27T08:47:56.094Z,0.90
2023-03-27T08:50:34.030Z,0.63
2023-03-27T08:53:02.774Z,0.90
2023-03-27T08:55:40.422Z,0.88
2023-03-27T08:58:20.218Z,1.07
2023-03-27T09:00:55.844Z,1.01
2023-03-27T09:03:29.577Z,1.02
2023-03-27T09:06:01.452Z,1.02
2023-03-27T09:08:40.767Z,1.12
2023-03-27T09:11:40.604Z,1.11
2023-03-27T09:14:24.272Z,0.89
2023-03-27T09:16:52.494Z,0.99
2023-03-27T09:19:44.234Z,0.84
2023-03-27T09:22:17.973Z,0.83
2023-03-27T09:24:48.946Z,1.02
2023-03-27T09:27:18.576Z,0.95
2023-03-27T09:29:45.505Z,0.77
2023-03-27T09:32:14.901Z,0.74
2023-03-27T09:34:42.408Z,0.89
2023-03-27T09:37:17.403Z,0.87
2023-03-27T09:39:50.171Z,1.01
2023-03-27T09:42:28.846Z,0.89
2023-03-27T09:45:00.423Z,0.98
2023-03-27T09:47:50.674Z,0.90
2023-03-27T09:50:27.758Z,0.86
2023-03-27T09:53:20.814Z,0.92
2023-03-27T09:56:03.559Z,0.87
2023-03-27T09:58:39.698Z,0.99
2023-03-27T10:01:38.536Z,1.06
2023-03-27T10:04:15.386Z,1.10
2023-03-27T10:06:53.594Z,1.08
2023-03-27T10:09:29.375Z,1.03
2023-03-27T10:12:08.172Z,1.11
2023-03-27T10:14:40.930Z,1.03
2023-03-27T10:17:24.847Z,1.06
2023-03-27T10:19:57.787Z,1.00
2023-03-27T10:22:31.486Z,1.21
2023-03-27T10:25:01.393Z,1.12
2023-03-27T10:27:32.498Z,1.03
2023-03-27T10:29:59.040Z,1.24
2023-03-27T10:32:46.458Z,1.32
2023-03-27T10:35:26.348Z,1.23
2023-03-27T10:37:53.403Z,1.16
2023-03-27T10:40:24.926Z,1.07
2023-03-27T10:42:51.824Z,1.11
2023-03-27T10:45:20.532Z,1.37
2023-03-27T10:47:52.504Z,1.24
2023-03-27T10:50:33.450Z,0.99
2023-03-27T10:53:20.525Z,1.03
2023-03-27T10:55:58.043Z,1.13
2023-03-27T10:59:01.836Z,1.28
2023-03-27T11:01:34.740Z,1.44
2023-03-27T11:04:08.256Z,1.07
2023-03-27T11:06:41.667Z,1.14
2023-03-27T11:09:18.495Z,1.27
2023-03-27T11:12:04.295Z,1.08
2023-03-27T11:14:51.392Z,0.90
2023-03-27T11:17:42.696Z,1.21
2023-03-27T11:20:24.936Z,1.17
2023-03-27T11:23:00.102Z,1.07
2023-03-27T11:25:43.214Z,1.30
2023-03-27T11:28:18.886Z,1.21
2023-03-27T11:30:51.440Z,1.30
2023-03-27T11:33:32.980Z,1.19
2023-03-27T11:36:46.436Z,1.23
2023-03-27T11:39:38.626Z,0.85
2023-03-27T11:42:17.997Z,0.78
2023-03-27T11:44:45.444Z,0.89
2023-03-27T11:47:43.589Z,0.94
2023-03-27T11:50:31.017Z,0.82
2023-03-27T11:53:25.222Z,1.03
2023-03-27T11:56:19.769Z,1.06
2023-03-27T11:59:21.262Z,1.22
2023-03-27T12:01:57.838Z,1.24
2023-03-27T12:04:36.634Z,1.10
2023-03-27T12:07:08.271Z,1.40
2023-03-27T12:10:00.569Z,1.17
2023-03-27T12:12:39.446Z,1.25
2023-03-27T12:15:40.007Z,1.33
2023-03-27T12:18:32.338Z,1.25
2023-03-27T12:21:31.277Z,1.13
2023-03-27T12:24:53.430Z,1.20
2023-03-27T12:27:34.275Z,0.96
2023-03-27T12:30:25.247Z,0.79
2023-03-27T12:33:15.475Z,0.79
2023-03-27T12:35:47.120Z,1.05
2023-03-27T12:38:25.178Z,0.94
2023-03-27T12:40:51.614Z,1.01
2023-03-27T12:43:21.019Z,0.84
2023-03-27T12:46:06.775Z,1.11
2023-03-27T12:48:34.807Z,1.24
2023-03-27T12:51:01.726Z,1.20
2023-03-27T12:53:28.182Z,1.10
2023-03-27T12:56:09.710Z,1.05
2023-03-27T12:58:38.148Z,0.95
2023-03-27T13:01:09.186Z,1.05
2023-03-27T13:04:24.088Z,1.11
2023-03-27T13:07:07.075Z,0.93
2023-03-27T13:09:55.232Z,1.19
2023-03-27T13:12:40.532Z,1.12
2023-03-27T13:15:38.103Z,1.07
2023-03-27T13:18:31.614Z,1.42
2023-03-27T13:21:20.092Z,1.29
2023-03-27T13:23:52.345Z,1.08
2023-03-27T13:26:55.134Z,1.21
2023-03-27T13:29:24.327Z,1.32
2023-03-27T13:31:51.153Z,1.06
2023-03-27T13:34:26.866Z,0.74
2023-03-27T13:37:06.899Z,0.76
2023-03-27T13:39:59.470Z,0.84
2023-03-27T13:42:35.585Z,0.81
2023-03-27T13:45:14.333Z,0.93
2023-03-27T13:47:53.871Z,0.80
2023-03-27T13:50:38.975Z,0.72
2023-03-27T13:53:23.176Z,0.89
2023-03-27T13:56:13.514Z,0.86
2023-03-27T13:58:52.212Z,1.02
2023-03-27T14:01:40.688Z,1.10
2023-03-27T14:04:34.269Z,1.18
2023-03-27T14:07:28.112Z,1.07
2023-03-27T14:10:10.011Z,1.01
2023-03-27T14:12:48.574Z,1.06
2023-03-27T14:15:27.685Z,1.15
2023-03-27T14:18:29.602Z,1.21
2023-03-27T14:21:00.557Z,1.12
2023-03-27T14:24:00.253Z,1.02
2023-03-27T14:26:29.677Z,1.21
2023-03-27T14:29:00.962Z,0.91
2023-03-27T14:31:29.456Z,1.05
2023-03-27T14:34:13.999Z,1.22
2023-03-27T14:36:42.366Z,0.96
2023-03-27T14:39:17.075Z,1.25
2023-03-27T14:41:56.879Z,1.46
2023-03-27T14:44:24.785Z,1.41
2023-03-27T14:47:03.824Z,1.37
2023-03-27T14:49:39.147Z,1.21
2023-03-27T14:52:07.749Z,1.06
2023-03-27T14:54:44.641Z,1.04
2023-03-27T14:57:15.539Z,1.05
2023-03-27T14:59:44.211Z,1.10
2023-03-27T15:02:22.436Z,1.14
2023-03-27T15:04:50.286Z,1.11
2023-03-27T15:07:28.545Z,1.17
2023-03-27T15:10:05.809Z,1.32
2023-03-27T15:12:35.960Z,1.21
2023-03-27T15:15:03.517Z,1.27
2023-03-27T15:17:34.533Z,1.31
2023-03-27T15:20:14.259Z,1.74
2023-03-27T15:22:47.373Z,1.42
2023-03-27T15:25:30.898Z,1.25
2023-03-27T15:27:59.931Z,1.08
2023-03-27T15:30:35.929Z,1.10
2023-03-27T15:33:04.403Z,0.88
2023-03-27T15:35:37.615Z,0.86
2023-03-27T15:38:06.514Z,1.01
2023-03-27T15:40:40.349Z,0.93
2023-03-27T15:43:08.696Z,1.04
2023-03-27T15:45:41.046Z,1.18
2023-03-27T15:48:20.669Z,1.16
2023-03-27T15:50:59.220Z,1.38
2023-03-27T15:53:31.730Z,1.20
2023-03-27T15:56:00.412Z,1.20
2023-03-27T15:58:52.718Z,1.32
2023-03-27T16:01:27.712Z,1.40
2023-03-27T16:04:00.615Z,1.63
2023-03-27T16:06:34.323Z,1.37
2023-03-27T16:09:01.544Z,1.54
2023-03-27T16:11:48.260Z,1.34
2023-03-27T16:14:28.643Z,1.47
2023-03-27T16:17:14.670Z,1.37
2023-03-27T16:20:07.457Z,1.32
2023-03-27T16:22:37.203Z,1.27
2023-03-27T16:25:09.923Z,1.27
2023-03-27T16:27:47.744Z,1.37
2023-03-27T16:30:28.579Z,1.39
2023-03-27T16:32:56.019Z,1.50
2023-03-27T16:35:23.121Z,1.25
2023-03-27T16:37:49.749Z,1.40
2023-03-27T16:40:16.382Z,1.25
2023-03-27T16:42:43.001Z,1.33
2023-03-27T16:45:09.777Z,1.22
2023-03-27T16:47:36.285Z,1.38
2023-03-27T16:52:32.833Z,1.21
2023-03-27T16:54:59.418Z,1.30
2023-03-27T16:57:26.102Z,1.14
2023-03-27T16:59:52.725Z,1.26
2023-03-27T17:02:19.248Z,1.34
2023-03-27T17:04:45.853Z,1.37
2023-03-27T17:07:12.401Z,1.40
2023-03-27T17:09:38.969Z,1.71
2023-03-27T17:12:05.790Z,1.61
2023-03-27T17:14:32.313Z,1.70
2023-03-27T17:16:58.960Z,1.66
2023-03-27T17:19:25.492Z,1.71
2023-03-27T17:21:52.044Z,1.74
2023-03-27T17:24:19.832Z,1.71
2023-03-27T17:26:46.605Z,1.95
2023-03-27T17:29:13.186Z,2.27
2023-03-27T17:31:39.927Z,2.25
2023-03-27T17:34:07.792Z,2.01
2023-03-27T17:36:42.810Z,1.87
2023-03-27T17:39:13.962Z,1.82
2023-03-27T17:41:40.644Z,1.81
2023-03-27T17:44:07.924Z,1.73
2023-03-27T17:46:34.673Z,1.89
2023-03-27T17:49:01.293Z,2.01
2023-03-27T17:51:27.858Z,1.86
2023-03-27T17:53:54.420Z,1.88
2023-03-27T17:56:21.129Z,1.85
2023-03-27T17:58:48.953Z,2.13
2023-03-27T18:01:18.455Z,2.04
2023-03-27T18:03:45.988Z,2.13
2023-03-27T18:06:13.228Z,2.14
2023-03-27T18:08:40.971Z,2.08
2023-03-27T18:11:09.944Z,2.26
2023-03-27T18:13:36.689Z,2.61
2023-03-27T18:16:06.751Z,2.67
2023-03-27T18:18:33.949Z,2.64
2023-03-27T18:21:01.573Z,2.91
2023-03-27T18:23:28.322Z,2.74
2023-03-27T18:25:55.308Z,2.59
2023-03-27T18:28:22.400Z,2.08
2023-03-27T18:30:58.406Z,1.84
2023-03-27T18:33:25.086Z,1.62
2023-03-27T18:35:56.511Z,1.53
2023-03-27T18:38:24.654Z,1.55
2023-03-27T18:40:51.348Z,1.52
2023-03-27T18:43:18.340Z,1.54
2023-03-27T18:45:45.200Z,1.81
2023-03-27T18:48:13.136Z,1.65
2023-03-27T18:50:39.749Z,1.78
2023-03-27T18:53:06.695Z,1.80
2023-03-27T18:55:33.334Z,1.47
2023-03-27T18:57:59.907Z,1.63
2023-03-27T19:00:26.603Z,1.65
2023-03-27T19:02:53.224Z,1.68
2023-03-27T19:05:19.901Z,2.21
2023-03-27T19:07:46.858Z,2.52
2023-03-27T19:10:13.934Z,2.66
2023-03-27T19:12:40.600Z,2.03
2023-03-27T19:15:19.434Z,1.86
2023-03-27T19:17:46.745Z,1.81
2023-03-27T19:20:14.076Z,1.62
2023-03-27T19:22:40.636Z,1.58
2023-03-27T19:25:08.892Z,1.75
2023-03-27T19:27:38.936Z,1.85
2023-03-27T19:30:11.258Z,2.03
2023-03-27T19:32:38.846Z,2.36
2023-03-27T19:35:05.852Z,2.44
2023-03-27T19:37:33.113Z,2.01
2023-03-27T19:39:59.772Z,1.90
2023-03-27T19:42:28.284Z,2.20
2023-03-27T19:44:55.563Z,1.68
2023-03-27T19:47:22.413Z,1.73
2023-03-27T19:49:49.291Z,1.90
2023-03-27T19:52:16.746Z,1.51
2023-03-27T19:54:43.251Z,1.62
2023-03-27T19:57:10.046Z,1.71
2023-03-27T19:59:36.666Z,1.75
2023-03-27T20:02:04.290Z,1.76
2023-03-27T20:04:31.065Z,1.81
2023-03-27T20:06:58.954Z,1.86
2023-03-27T20:09:25.656Z,1.87
2023-03-27T20:11:53.297Z,1.92
2023-03-27T20:14:19.819Z,1.89
2023-03-27T20:16:46.549Z,2.10
2023-03-27T20:19:16.578Z,2.10
2023-03-27T20:21:43.633Z,2.10
2023-03-27T20:24:13.422Z,2.17
2023-03-27T20:26:41.773Z,2.54
2023-03-27T20:29:15.380Z,2.60
2023-03-27T20:31:42.075Z,2.55
2023-03-27T20:34:09.553Z,3.71
2023-03-27T20:36:39.109Z,3.16
2023-03-27T20:39:07.795Z,6.70
2023-03-27T20:41:38.707Z,10.61
2023-03-27T20:44:15.141Z,6.82
2023-03-27T20:46:47.379Z,11.59
2023-03-27T20:49:37.693Z,5.68
2023-03-27T20:52:09.343Z,3.64
2023-03-27T20:54:36.469Z,3.53
2023-03-27T20:57:03.197Z,2.93
2023-03-27T20:59:30.595Z,2.41
2023-03-27T21:01:59.492Z,2.45
2023-03-27T21:04:28.116Z,2.28
2023-03-27T21:06:55.299Z,2.14
2023-03-27T21:09:23.042Z,1.96
2023-03-27T21:11:49.982Z,2.37
2023-03-27T21:14:17.207Z,2.17
2023-03-27T21:16:43.886Z,2.10
2023-03-27T21:19:11.870Z,2.30
2023-03-27T21:21:39.047Z,2.27
2023-03-27T21:24:06.064Z,2.49
2023-03-27T21:26:32.794Z,2.50
2023-03-27T21:28:59.343Z,2.49
2023-03-27T21:31:25.878Z,2.44
2023-03-27T21:33:52.466Z,2.54
2023-03-27T21:36:19.142Z,2.82
2023-03-27T21:38:45.770Z,3.38
2023-03-27T21:41:16.435Z,4.20
2023-03-27T21:43:43.166Z,5.17
2023-03-27T21:46:10.534Z,5.16
2023-03-27T21:48:37.391Z,3.88
2023-03-27T21:51:06.088Z,2.96
2023-03-27T21:53:33.000Z,3.04
2023-03-27T21:56:00.340Z,2.55
2023-03-27T21:58:27.254Z,2.55
2023-03-27T22:00:57.238Z,2.40
2023-03-27T22:03:24.755Z,2.41
2023-03-27T22:06:07.692Z,2.31
2023-03-27T22:08:36.871Z,2.62
2023-03-27T22:11:03.719Z,2.47
2023-03-27T22:13:30.317Z,2.57
2023-03-27T22:15:57.119Z,2.37
2023-03-27T22:18:24.736Z,2.57
2023-03-27T22:20:51.312Z,2.44
2023-03-27T22:23:17.877Z,2.37
2023-03-27T22:25:51.725Z,2.24
2023-03-27T22:28:18.264Z,2.36
2023-03-27T22:30:44.765Z,2.47
2023-03-27T22:33:11.280Z,2.43
2023-03-27T22:35:37.881Z,2.43
2023-03-27T22:38:04.522Z,2.27
2023-03-27T22:40:31.120Z,2.57
2023-03-27T22:42:57.711Z,2.53
2023-03-27T22:45:24.280Z,2.54
2023-03-27T22:47:50.951Z,2.68
2023-03-27T22:50:17.625Z,2.65
2023-03-27T22:52:44.119Z,2.67
2023-03-27T22:55:10.729Z,2.91
2023-03-27T22:57:37.753Z,2.86
2023-03-27T23:00:07.967Z,2.94
2023-03-27T23:02:35.022Z,2.92
2023-03-27T23:05:02.007Z,2.75
2023-03-27T23:07:28.678Z,2.78
2023-03-27T23:09:55.995Z,2.66
2023-03-27T23:12:22.573Z,2.55
2023-03-27T23:14:49.121Z,2.59
2023-03-27T23:17:15.821Z,2.61
2023-03-27T23:19:42.382Z,2.52
2023-03-27T23:22:08.959Z,2.37
2023-03-27T23:24:35.568Z,2.60
2023-03-27T23:27:04.782Z,2.62
2023-03-27T23:29:31.591Z,2.49
2023-03-27T23:31:58.131Z,2.64
2023-03-27T23:34:24.680Z,2.58
2023-03-27T23:36:51.179Z,2.63
2023-03-27T23:39:17.705Z,2.66
2023-03-27T23:41:44.217Z,2.51
2023-03-27T23:44:10.725Z,2.60
2023-03-27T23:46:37.309Z,2.51
2023-03-27T23:49:03.935Z,2.55
2023-03-27T23:51:30.518Z,2.45
2023-03-27T23:53:57.015Z,2.46
2023-03-27T23:56:23.510Z,2.74
2023-03-27T23:58:50.275Z,2.63
